createdAt,value
2024-03-12T00:00:09.730Z,85.876
2024-03-12T00:01:11.027Z,86.107
2024-03-12T00:02:09.387Z,87.112
2024-03-12T00:03:09.823Z,86.699
2024-03-12T00:04:09.491Z,86.472
2024-03-12T00:06:09.436Z,86.569
2024-03-12T00:07:09.152Z,86.525
2024-03-12T00:08:09.875Z,86.468
2024-03-12T00:09:09.281Z,86.647
2024-03-12T00:10:09.940Z,86.323
2024-03-12T00:11:08.959Z,86.494
2024-03-12T00:12:09.545Z,86.746
2024-03-12T00:13:09.063Z,87.086
2024-03-12T00:14:09.785Z,87.069
2024-03-12T00:15:09.080Z,87.259
2024-03-12T00:16:10.284Z,87.711
2024-03-12T00:17:08.894Z,87.975
2024-03-12T00:18:09.301Z,87.505
2024-03-12T00:19:08.985Z,87.688
2024-03-12T00:20:10.407Z,87.688
2024-03-12T00:22:09.628Z,87.772
2024-03-12T00:23:09.207Z,87.477
2024-03-12T00:24:09.895Z,87.763
2024-03-12T00:25:09.946Z,87.563
2024-03-12T00:26:09.387Z,87.639
2024-03-12T00:27:08.802Z,87.671
2024-03-12T00:28:10.412Z,87.685
2024-03-12T00:29:08.933Z,87.542
2024-03-12T00:30:09.506Z,87.420
2024-03-12T00:31:09.371Z,87.519
2024-03-12T00:32:08.813Z,86.947
2024-03-12T00:33:09.579Z,87.227
2024-03-12T00:34:09.375Z,87.406
2024-03-12T00:35:08.958Z,87.856
2024-03-12T00:36:09.356Z,87.923
2024-03-12T00:37:09.151Z,88.152
2024-03-12T00:38:09.688Z,88.341
2024-03-12T00:39:09.493Z,88.375
2024-03-12T00:40:09.114Z,88.751
2024-03-12T00:41:09.741Z,88.974
2024-03-12T00:42:09.114Z,88.533
2024-03-12T00:43:10.246Z,88.844
2024-03-12T00:44:09.840Z,89.392
2024-03-12T00:46:10.070Z,89.432
2024-03-12T00:48:09.567Z,88.593
2024-03-12T00:49:09.530Z,89.100
2024-03-12T00:50:08.972Z,88.697
2024-03-12T00:51:09.454Z,89.624
2024-03-12T00:52:10.146Z,89.693
2024-03-12T00:53:09.588Z,89.871
2024-03-12T00:54:08.869Z,89.737
2024-03-12T00:55:09.585Z,89.975
2024-03-12T00:56:08.996Z,89.741
2024-03-12T00:57:09.498Z,89.966
2024-03-12T00:58:09.250Z,89.562
2024-03-12T00:59:09.638Z,89.592
2024-03-12T01:00:09.030Z,88.856
2024-03-12T01:01:09.890Z,89.008
2024-03-12T01:02:08.790Z,89.384
2024-03-12T01:03:09.141Z,89.592
2024-03-12T01:04:09.948Z,89.455
2024-03-12T01:05:09.406Z,89.680
2024-03-12T01:06:09.788Z,89.489
2024-03-12T01:07:09.455Z,89.605
2024-03-12T01:08:09.558Z,89.649
2024-03-12T01:09:09.146Z,89.443
2024-03-12T01:10:10.350Z,89.718
2024-03-12T01:11:09.077Z,89.537
2024-03-12T01:12:09.615Z,89.399
2024-03-12T01:13:09.197Z,89.251
2024-03-12T01:14:09.626Z,89.495
2024-03-12T01:15:09.005Z,89.424
2024-03-12T01:16:10.113Z,89.010
2024-03-12T01:18:10.740Z,89.892
2024-03-12T01:19:09.543Z,89.556
2024-03-12T01:20:08.906Z,89.979
2024-03-12T01:21:09.351Z,89.945
2024-03-12T01:22:08.959Z,89.926
2024-03-12T01:23:10.706Z,89.932
2024-03-12T01:24:08.980Z,89.926
2024-03-12T01:25:09.441Z,90.094
2024-03-12T01:26:08.845Z,90.029
2024-03-12T01:27:09.184Z,89.960
2024-03-12T01:28:12.077Z,90.183
2024-03-12T01:29:08.840Z,90.004
2024-03-12T01:30:09.219Z,90.328
2024-03-12T01:31:09.935Z,89.996
2024-03-12T01:32:09.527Z,90.159
2024-03-12T01:33:09.898Z,89.975
2024-03-12T01:34:09.692Z,90.267
2024-03-12T01:35:09.017Z,90.332
2024-03-12T01:36:09.409Z,90.506
2024-03-12T01:37:10.470Z,90.094
2024-03-12T01:38:09.195Z,90.096
2024-03-12T01:39:09.876Z,90.431
2024-03-12T01:40:09.890Z,90.321
2024-03-12T01:41:09.398Z,90.670
2024-03-12T01:42:09.762Z,90.908
2024-03-12T01:44:09.038Z,90.656
2024-03-12T01:45:09.481Z,90.880
2024-03-12T01:46:09.007Z,91.028
2024-03-12T01:47:09.585Z,90.492
2024-03-12T01:48:10.143Z,90.592
2024-03-12T01:49:08.948Z,90.309
2024-03-12T01:50:09.453Z,90.300
2024-03-12T01:51:09.788Z,90.323
2024-03-12T01:52:09.409Z,90.696
2024-03-12T01:53:09.635Z,90.969
2024-03-12T01:54:09.580Z,90.538
2024-03-12T01:55:09.110Z,90.696
2024-03-12T01:56:09.500Z,90.962
2024-03-12T01:57:08.841Z,90.883
2024-03-12T01:58:09.640Z,90.706
2024-03-12T01:59:09.051Z,90.553
2024-03-12T02:00:09.380Z,90.527
2024-03-12T02:01:10.348Z,90.525
2024-03-12T02:02:09.280Z,90.563
2024-03-12T02:03:09.641Z,90.527
2024-03-12T02:04:09.594Z,90.921
2024-03-12T02:05:09.149Z,90.883
2024-03-12T02:06:09.484Z,90.899
2024-03-12T02:07:09.099Z,91.034
2024-03-12T02:08:09.554Z,90.996
2024-03-12T02:09:08.876Z,91.070
2024-03-12T02:10:09.405Z,90.817
2024-03-12T02:11:08.968Z,91.198
2024-03-12T02:12:09.380Z,91.587
2024-03-12T02:13:10.604Z,91.148
2024-03-12T02:14:09.290Z,91.095
2024-03-12T02:15:09.662Z,91.122
2024-03-12T02:16:09.298Z,90.960
2024-03-12T02:17:08.809Z,90.893
2024-03-12T02:18:09.575Z,91.190
2024-03-12T02:19:09.299Z,91.208
2024-03-12T02:20:08.746Z,91.047
2024-03-12T02:21:09.463Z,91.490
2024-03-12T02:22:09.348Z,91.416
2024-03-12T02:23:08.898Z,91.147
2024-03-12T02:24:09.354Z,91.173
2024-03-12T02:25:10.443Z,90.872
2024-03-12T02:26:09.025Z,91.581
2024-03-12T02:27:09.467Z,91.581
2024-03-12T02:28:10.536Z,91.257
2024-03-12T02:29:09.257Z,91.416
2024-03-12T02:31:10.658Z,91.341
2024-03-12T02:32:09.218Z,91.841
2024-03-12T02:33:09.886Z,91.642
2024-03-12T02:34:09.697Z,90.887
2024-03-12T02:35:09.155Z,91.303
2024-03-12T02:36:09.604Z,91.295
2024-03-12T02:37:09.036Z,91.395
2024-03-12T02:38:09.500Z,91.387
2024-03-12T02:39:08.957Z,90.929
2024-03-12T02:40:10.003Z,91.072
2024-03-12T02:41:09.663Z,90.983
2024-03-12T02:42:08.982Z,91.398
2024-03-12T02:43:09.659Z,91.385
2024-03-12T02:44:09.112Z,90.799
2024-03-12T02:45:09.564Z,90.925
2024-03-12T02:46:09.467Z,91.354
2024-03-12T02:47:09.132Z,91.740
2024-03-12T02:48:09.879Z,91.656
2024-03-12T02:49:09.823Z,92.064
2024-03-12T02:50:09.301Z,92.425
2024-03-12T02:51:09.660Z,92.140
2024-03-12T02:52:09.333Z,91.934
2024-03-12T02:53:09.720Z,91.856
2024-03-12T02:54:09.142Z,91.641
2024-03-12T02:55:09.777Z,91.866
2024-03-12T02:56:09.313Z,91.829
2024-03-12T02:57:09.670Z,91.713
2024-03-12T02:58:09.418Z,91.969
2024-03-12T03:00:09.407Z,92.215
2024-03-12T03:01:10.193Z,92.072
2024-03-12T03:02:09.231Z,92.098
2024-03-12T03:03:09.699Z,92.041
2024-03-12T03:04:09.174Z,92.144
2024-03-12T03:05:09.652Z,92.331
2024-03-12T03:06:09.816Z,92.032
2024-03-12T03:07:09.613Z,92.068
2024-03-12T03:08:09.210Z,92.268
2024-03-12T03:09:09.710Z,92.011
2024-03-12T03:10:09.799Z,92.215
2024-03-12T03:11:09.380Z,92.064
2024-03-12T03:14:09.202Z,92.013
2024-03-12T03:15:09.689Z,92.394
2024-03-12T03:16:10.931Z,92.146
2024-03-12T03:17:09.522Z,92.375
2024-03-12T03:18:09.543Z,92.201
2024-03-12T03:19:09.534Z,92.552
2024-03-12T03:20:08.969Z,92.522
2024-03-12T03:21:09.485Z,92.426
2024-03-12T03:22:09.551Z,92.501
2024-03-12T03:24:09.486Z,92.323
2024-03-12T03:25:09.082Z,92.274
2024-03-12T03:26:09.871Z,92.281
2024-03-12T03:27:09.430Z,92.459
2024-03-12T03:28:08.957Z,92.369
2024-03-12T03:29:09.599Z,92.116
2024-03-12T03:30:08.964Z,92.259
2024-03-12T03:31:10.969Z,92.152
2024-03-12T03:32:09.658Z,92.217
2024-03-12T03:33:09.025Z,92.394
2024-03-12T03:34:09.987Z,92.526
2024-03-12T03:36:09.128Z,92.655
2024-03-12T03:37:10.004Z,92.804
2024-03-12T03:39:09.035Z,92.898
2024-03-12T03:40:09.884Z,92.779
2024-03-12T03:41:08.912Z,92.646
2024-03-12T03:42:09.684Z,92.711
2024-03-12T03:43:10.151Z,92.825
2024-03-12T03:44:08.811Z,92.968
2024-03-12T03:45:09.466Z,92.943
2024-03-12T03:46:09.122Z,92.976
2024-03-12T03:47:09.668Z,92.854
2024-03-12T03:48:09.116Z,92.915
2024-03-12T03:49:09.726Z,92.976
2024-03-12T03:50:09.659Z,92.554
2024-03-12T03:51:09.124Z,92.899
2024-03-12T03:52:10.155Z,92.951
2024-03-12T03:53:09.675Z,92.972
2024-03-12T03:54:08.967Z,93.207
2024-03-12T03:55:09.781Z,93.205
2024-03-12T03:56:09.293Z,93.092
2024-03-12T03:57:09.973Z,93.016
2024-03-12T03:58:09.904Z,93.168
2024-03-12T03:59:09.393Z,93.233
2024-03-12T04:00:09.782Z,93.466
2024-03-12T04:01:09.956Z,93.485
2024-03-12T04:02:09.181Z,93.130
2024-03-12T04:03:09.728Z,93.414
2024-03-12T04:04:09.364Z,93.308
2024-03-12T04:05:09.854Z,93.559
2024-03-12T04:06:09.251Z,93.491
2024-03-12T04:07:10.113Z,93.397
2024-03-12T04:08:09.795Z,93.451
2024-03-12T04:11:10.284Z,93.630
2024-03-12T04:12:09.825Z,94.057
2024-03-12T04:13:09.403Z,94.025
2024-03-12T04:14:09.734Z,94.031
2024-03-12T04:15:09.233Z,93.777
2024-03-12T04:16:10.284Z,93.813
2024-03-12T04:17:08.942Z,94.154
2024-03-12T04:18:09.685Z,93.939
2024-03-12T04:19:09.950Z,94.036
2024-03-12T04:20:09.706Z,93.922
2024-03-12T04:21:09.787Z,93.878
2024-03-12T04:22:09.981Z,93.887
2024-03-12T04:24:08.930Z,94.250
2024-03-12T04:25:09.625Z,94.061
2024-03-12T04:26:09.467Z,93.910
2024-03-12T04:27:09.180Z,93.681
2024-03-12T04:28:09.910Z,93.851
2024-03-12T04:29:09.364Z,93.928
2024-03-12T04:30:09.903Z,93.914
2024-03-12T04:32:09.023Z,94.029
2024-03-12T04:33:09.915Z,93.718
2024-03-12T04:34:09.734Z,93.678
2024-03-12T04:35:09.441Z,93.790
2024-03-12T04:36:08.822Z,93.762
2024-03-12T04:37:09.730Z,93.607
2024-03-12T04:39:09.009Z,94.086
2024-03-12T04:40:09.990Z,94.027
2024-03-12T04:41:09.382Z,93.783
2024-03-12T04:42:09.730Z,93.844
2024-03-12T04:43:09.241Z,93.723
2024-03-12T04:45:09.415Z,94.006
2024-03-12T04:46:09.069Z,94.572
2024-03-12T04:47:09.907Z,94.385
2024-03-12T04:48:09.468Z,94.498
2024-03-12T04:49:09.191Z,94.017
2024-03-12T04:51:09.738Z,94.313
2024-03-12T04:52:09.382Z,94.101
2024-03-12T04:53:08.792Z,94.145
2024-03-12T04:54:10.263Z,94.212
2024-03-12T04:55:09.989Z,93.866
2024-03-12T04:57:09.797Z,94.141
2024-03-12T04:58:09.436Z,94.017
2024-03-12T04:59:08.951Z,94.481
2024-03-12T05:00:09.402Z,94.443
2024-03-12T05:01:09.352Z,94.429
2024-03-12T05:02:09.198Z,94.418
2024-03-12T05:03:09.872Z,94.608
2024-03-12T05:04:23.000Z,94.536
2024-03-12T05:06:09.683Z,94.387
2024-03-12T05:07:09.379Z,94.513
2024-03-12T05:08:08.869Z,94.305
2024-03-12T05:09:09.195Z,93.826
2024-03-12T05:10:10.032Z,93.725
2024-03-12T05:11:09.541Z,93.840
2024-03-12T05:12:09.048Z,93.701
2024-03-12T05:13:10.173Z,93.804
2024-03-12T05:14:09.848Z,94.172
2024-03-12T05:16:09.945Z,94.002
2024-03-12T05:18:09.282Z,94.240
2024-03-12T05:19:09.487Z,93.914
2024-03-12T05:21:08.814Z,93.794
2024-03-12T05:22:09.624Z,93.720
2024-03-12T05:23:09.314Z,93.304
2024-03-12T05:24:09.762Z,93.683
2024-03-12T05:25:09.546Z,93.935
2024-03-12T05:26:09.085Z,93.626
2024-03-12T05:27:13.850Z,93.557
2024-03-12T05:28:09.245Z,93.640
2024-03-12T05:30:09.398Z,93.123
2024-03-12T05:31:09.832Z,93.166
2024-03-12T05:32:09.354Z,93.151
2024-03-12T05:33:10.006Z,93.336
2024-03-12T05:34:09.598Z,93.447
2024-03-12T05:35:09.806Z,93.220
2024-03-12T05:36:09.464Z,93.115
2024-03-12T05:37:12.731Z,92.898
2024-03-12T05:38:11.119Z,93.220
2024-03-12T05:39:09.760Z,93.037
2024-03-12T05:41:09.269Z,92.674
2024-03-12T05:42:09.545Z,92.697
2024-03-12T05:43:09.244Z,92.528
2024-03-12T05:44:09.773Z,92.798
2024-03-12T05:45:09.100Z,92.663
2024-03-12T05:46:09.973Z,92.659
2024-03-12T05:47:08.784Z,92.589
2024-03-12T05:48:09.600Z,92.440
2024-03-12T05:49:09.324Z,92.459
2024-03-12T05:50:08.952Z,92.264
2024-03-12T05:51:09.342Z,92.112
2024-03-12T05:52:09.974Z,92.136
2024-03-12T05:53:09.479Z,92.013
2024-03-12T05:54:08.851Z,91.875
2024-03-12T05:55:09.520Z,91.768
2024-03-12T05:56:09.118Z,91.648
2024-03-12T05:57:09.943Z,91.532
2024-03-12T05:58:09.618Z,91.356
2024-03-12T05:59:09.195Z,91.377
2024-03-12T06:00:09.623Z,91.421
2024-03-12T06:01:09.667Z,91.646
2024-03-12T06:02:09.776Z,91.662
2024-03-12T06:03:09.438Z,91.789
2024-03-12T06:04:09.318Z,91.705
2024-03-12T06:05:08.831Z,91.944
2024-03-12T06:06:09.369Z,91.841
2024-03-12T06:07:09.271Z,92.049
2024-03-12T06:08:09.709Z,91.923
2024-03-12T06:09:08.968Z,91.948
2024-03-12T06:10:10.002Z,91.709
2024-03-12T06:11:10.218Z,91.917
2024-03-12T06:12:09.658Z,92.026
2024-03-12T06:13:09.131Z,92.209
2024-03-12T06:14:09.998Z,92.150
2024-03-12T06:15:09.406Z,92.127
2024-03-12T06:16:10.133Z,92.037
2024-03-12T06:17:08.709Z,92.201
2024-03-12T06:18:09.357Z,92.142
2024-03-12T06:19:10.006Z,92.318
2024-03-12T06:20:14.258Z,92.014
2024-03-12T06:21:09.533Z,91.753
2024-03-12T06:22:09.737Z,91.696
2024-03-12T06:25:11.267Z,90.519
2024-03-12T06:27:10.827Z,89.985
2024-03-12T06:28:09.935Z,89.804
2024-03-12T06:30:08.964Z,89.359
2024-03-12T06:31:09.888Z,89.445
2024-03-12T06:32:08.776Z,89.218
2024-03-12T06:33:09.426Z,89.127
2024-03-12T06:34:09.104Z,89.161
2024-03-12T06:35:08.882Z,89.150
2024-03-12T06:36:09.411Z,89.340
2024-03-12T06:37:09.041Z,89.443
2024-03-12T06:38:09.528Z,89.310
2024-03-12T06:39:08.964Z,89.077
2024-03-12T06:40:09.628Z,88.955
2024-03-12T06:41:09.356Z,88.680
2024-03-12T06:42:13.465Z,88.509
2024-03-12T06:44:08.868Z,88.596
2024-03-12T06:45:10.821Z,88.339
2024-03-12T06:46:09.648Z,88.205
2024-03-12T06:47:09.240Z,88.350
2024-03-12T06:48:10.135Z,88.783
2024-03-12T06:49:09.042Z,89.174
2024-03-12T06:50:12.058Z,89.174
2024-03-12T06:53:09.084Z,88.572
2024-03-12T06:54:09.433Z,88.421
2024-03-12T06:55:11.141Z,88.163
2024-03-12T06:56:09.332Z,88.076
2024-03-12T06:57:09.717Z,87.866
2024-03-12T06:58:09.380Z,87.521
2024-03-12T06:59:08.886Z,87.290
2024-03-12T07:00:09.415Z,87.557
2024-03-12T07:02:09.010Z,87.399
2024-03-12T07:03:09.627Z,87.360
2024-03-12T07:04:09.230Z,87.278
2024-03-12T07:05:09.830Z,87.011
2024-03-12T07:06:09.186Z,86.895
2024-03-12T07:07:10.156Z,86.359
2024-03-12T07:09:11.235Z,86.670
2024-03-12T07:10:10.132Z,86.554
2024-03-12T07:11:08.992Z,87.221
2024-03-12T07:12:09.988Z,87.214
2024-03-12T07:13:09.683Z,87.338
2024-03-12T07:16:09.135Z,87.500
2024-03-12T07:17:09.266Z,87.172
2024-03-12T07:18:10.232Z,86.874
2024-03-12T07:19:10.119Z,86.836
2024-03-12T07:20:09.812Z,86.939
2024-03-12T07:21:09.413Z,87.107
2024-03-12T07:22:10.319Z,86.840
2024-03-12T07:23:08.793Z,87.173
2024-03-12T07:24:09.135Z,87.235
2024-03-12T07:25:09.865Z,87.463
2024-03-12T07:26:09.504Z,87.196
2024-03-12T07:27:08.965Z,87.330
2024-03-12T07:28:11.461Z,87.034
2024-03-12T07:29:09.084Z,86.885
2024-03-12T07:30:09.736Z,85.897
2024-03-12T07:31:09.439Z,85.653
2024-03-12T07:32:08.972Z,85.464
2024-03-12T07:33:10.443Z,85.415
2024-03-12T07:34:09.264Z,84.864
2024-03-12T07:35:09.697Z,85.119
2024-03-12T07:36:09.086Z,85.211
2024-03-12T07:37:09.979Z,85.251
2024-03-12T07:38:10.501Z,85.163
2024-03-12T07:39:08.809Z,84.690
2024-03-12T07:40:09.430Z,84.526
2024-03-12T07:41:08.922Z,84.658
2024-03-12T07:42:10.938Z,84.726
2024-03-12T07:43:10.642Z,84.185
2024-03-12T07:44:09.242Z,83.773
2024-03-12T07:45:09.588Z,83.801
2024-03-12T07:46:09.128Z,83.534
2024-03-12T07:47:09.985Z,83.958
2024-03-12T07:48:09.861Z,83.963
2024-03-12T07:49:12.826Z,83.626
2024-03-12T07:50:09.627Z,83.437
2024-03-12T07:51:12.533Z,83.656
2024-03-12T07:52:08.955Z,84.131
2024-03-12T07:53:09.723Z,83.740
2024-03-12T07:56:08.902Z,83.693
2024-03-12T07:57:09.349Z,83.527
2024-03-12T07:58:10.138Z,83.626
2024-03-12T07:59:08.897Z,82.750
2024-03-12T08:00:09.409Z,83.004
2024-03-12T08:01:10.261Z,82.745
2024-03-12T08:02:09.018Z,82.386
2024-03-12T08:03:09.558Z,82.396
2024-03-12T08:04:09.108Z,82.424
2024-03-12T08:05:09.779Z,81.999
2024-03-12T08:06:09.330Z,82.098
2024-03-12T08:07:10.025Z,81.799
2024-03-12T08:08:09.590Z,81.963
2024-03-12T08:09:08.921Z,81.913
2024-03-12T08:10:09.878Z,81.779
2024-03-12T08:11:09.955Z,81.686
2024-03-12T08:12:09.329Z,81.713
2024-03-12T08:13:09.551Z,81.581
2024-03-12T08:14:09.036Z,81.673
2024-03-12T08:15:09.434Z,81.427
2024-03-12T08:16:10.105Z,81.152
2024-03-12T08:17:08.824Z,81.703
2024-03-12T08:18:24.118Z,82.029
2024-03-12T08:19:09.663Z,81.398
2024-03-12T08:20:08.947Z,81.419
2024-03-12T08:21:09.867Z,81.396
2024-03-12T08:22:09.445Z,81.320
2024-03-12T08:24:08.990Z,81.551
2024-03-12T08:25:09.601Z,81.501
2024-03-12T08:26:10.458Z,81.577
2024-03-12T08:27:09.747Z,81.713
2024-03-12T08:28:09.304Z,81.852
2024-03-12T08:31:32.451Z,81.791
2024-03-12T08:32:09.493Z,81.594
2024-03-12T08:33:09.034Z,81.823
2024-03-12T08:34:09.821Z,81.736
2024-03-12T08:35:09.445Z,82.161
2024-03-12T08:36:08.773Z,81.987
2024-03-12T08:37:09.722Z,81.873
2024-03-12T08:38:09.251Z,82.016
2024-03-12T08:39:09.714Z,82.094
2024-03-12T08:40:09.515Z,81.829
2024-03-12T08:41:09.129Z,81.560
2024-03-12T08:42:09.725Z,82.169
2024-03-12T08:43:14.162Z,82.260
2024-03-12T08:45:09.213Z,82.634
2024-03-12T08:46:09.910Z,82.523
2024-03-12T08:47:09.727Z,82.087
2024-03-12T08:48:09.359Z,82.134
2024-03-12T08:49:10.372Z,82.090
2024-03-12T08:50:09.016Z,82.170
2024-03-12T08:51:09.613Z,81.856
2024-03-12T08:52:09.193Z,82.123
2024-03-12T08:53:10.312Z,81.757
2024-03-12T08:54:09.298Z,81.869
2024-03-12T08:55:09.068Z,81.520
2024-03-12T08:56:10.484Z,81.272
2024-03-12T08:57:08.949Z,81.259
2024-03-12T08:58:10.732Z,81.387
2024-03-12T09:00:09.130Z,81.577
2024-03-12T09:01:10.156Z,81.301
2024-03-12T09:02:09.571Z,81.585
2024-03-12T09:03:09.253Z,81.444
2024-03-12T09:04:12.555Z,81.325
2024-03-12T09:06:09.783Z,80.482
2024-03-12T09:07:09.379Z,80.065
2024-03-12T09:08:08.945Z,80.322
2024-03-12T09:09:09.361Z,79.805
2024-03-12T09:10:10.320Z,79.752
2024-03-12T09:11:09.619Z,80.181
2024-03-12T09:12:09.141Z,80.233
2024-03-12T09:13:09.871Z,80.114
2024-03-12T09:14:09.454Z,80.101
2024-03-12T09:15:08.875Z,80.820
2024-03-12T09:16:10.436Z,80.843
2024-03-12T09:17:09.320Z,80.656
2024-03-12T09:18:09.963Z,80.101
2024-03-12T09:19:09.661Z,79.559
2024-03-12T09:20:09.392Z,79.727
2024-03-12T09:21:09.131Z,79.576
2024-03-12T09:22:10.026Z,79.189
2024-03-12T09:25:10.089Z,79.248
2024-03-12T09:26:09.702Z,79.071
2024-03-12T09:27:09.061Z,78.962
2024-03-12T09:28:09.763Z,79.298
2024-03-12T09:30:08.982Z,79.027
2024-03-12T09:31:09.844Z,79.130
2024-03-12T09:32:09.778Z,79.880
2024-03-12T09:33:09.307Z,79.924
2024-03-12T09:34:09.524Z,79.786
2024-03-12T09:35:08.957Z,79.979
2024-03-12T09:36:09.329Z,79.899
2024-03-12T09:37:12.178Z,79.893
2024-03-12T09:39:09.498Z,79.725
2024-03-12T09:40:09.846Z,79.950
2024-03-12T09:41:09.393Z,79.809
2024-03-12T09:44:12.779Z,80.063
2024-03-12T09:46:10.157Z,80.006
2024-03-12T09:47:09.661Z,80.072
2024-03-12T09:48:09.628Z,79.975
2024-03-12T09:49:09.273Z,80.061
2024-03-12T09:50:12.938Z,79.870
2024-03-12T09:52:09.298Z,80.172
2024-03-12T09:53:08.794Z,80.913
2024-03-12T09:54:09.139Z,81.667
2024-03-12T09:55:10.316Z,81.755
2024-03-12T09:56:12.350Z,81.736
2024-03-12T09:59:09.891Z,81.715
2024-03-12T10:01:09.061Z,81.640
2024-03-12T10:02:12.696Z,81.619
2024-03-12T10:04:10.647Z,81.694
2024-03-12T10:05:09.494Z,81.839
2024-03-12T10:06:08.848Z,82.100
2024-03-12T10:07:09.994Z,81.957
2024-03-12T10:08:13.238Z,82.121
2024-03-12T10:10:10.059Z,81.921
2024-03-12T10:11:09.895Z,82.155
2024-03-12T10:12:08.941Z,82.212
2024-03-12T10:13:09.553Z,82.218
2024-03-12T10:14:12.809Z,82.260
2024-03-12T10:16:11.633Z,82.195
2024-03-12T10:17:09.315Z,81.943
2024-03-12T10:18:08.992Z,81.743
2024-03-12T10:19:09.705Z,81.661
2024-03-12T10:20:12.781Z,81.665
2024-03-12T10:23:08.864Z,81.383
2024-03-12T10:24:10.280Z,81.160
2024-03-12T10:25:10.689Z,80.954
2024-03-12T10:26:13.444Z,80.904
2024-03-12T10:27:10.532Z,80.986
2024-03-12T10:28:14.779Z,80.782
2024-03-12T10:31:09.408Z,80.334
2024-03-12T10:32:12.587Z,80.170
2024-03-12T10:34:09.834Z,79.822
2024-03-12T10:35:09.398Z,79.924
2024-03-12T10:36:09.691Z,80.027
2024-03-12T10:37:09.786Z,79.885
2024-03-12T10:38:10.070Z,79.422
2024-03-12T10:41:09.435Z,78.674
2024-03-12T10:42:08.902Z,79.615
2024-03-12T10:43:09.660Z,79.262
2024-03-12T10:44:12.217Z,78.998
2024-03-12T10:45:08.936Z,79.023
2024-03-12T10:46:09.790Z,79.134
2024-03-12T10:47:09.563Z,79.082
2024-03-12T10:48:09.081Z,78.991
2024-03-12T10:49:09.780Z,79.134
2024-03-12T10:50:09.426Z,79.130
2024-03-12T10:51:08.737Z,79.225
2024-03-12T10:52:09.489Z,79.906
2024-03-12T10:53:09.053Z,79.048
2024-03-12T10:54:09.567Z,79.426
2024-03-12T10:55:14.288Z,79.174
2024-03-12T10:56:15.899Z,79.309
2024-03-12T10:58:10.041Z,78.770
2024-03-12T10:59:09.547Z,78.421
2024-03-12T11:00:09.019Z,78.892
2024-03-12T11:01:09.844Z,78.617
2024-03-12T11:02:13.710Z,78.463
2024-03-12T11:04:10.086Z,78.796
2024-03-12T11:05:09.733Z,78.831
2024-03-12T11:06:09.155Z,78.644
2024-03-12T11:07:09.786Z,78.682
2024-03-12T11:08:12.474Z,78.817
2024-03-12T11:10:09.837Z,78.390
2024-03-12T11:11:09.591Z,77.539
2024-03-12T11:13:10.092Z,77.360
2024-03-12T11:14:13.572Z,76.359
2024-03-12T11:16:09.686Z,76.506
2024-03-12T11:17:09.338Z,76.450
2024-03-12T11:18:10.033Z,76.210
2024-03-12T11:19:09.567Z,75.813
2024-03-12T11:20:12.595Z,75.806
2024-03-12T11:21:08.904Z,76.847
2024-03-12T11:22:09.366Z,77.042
2024-03-12T11:23:09.353Z,76.843
2024-03-12T11:24:09.652Z,76.876
2024-03-12T11:25:09.106Z,76.849
2024-03-12T11:26:09.782Z,76.620
2024-03-12T11:27:09.131Z,77.026
2024-03-12T11:28:10.066Z,76.677
2024-03-12T11:30:09.814Z,75.302
2024-03-12T11:31:09.218Z,75.621
2024-03-12T11:32:14.671Z,74.953
2024-03-12T11:33:12.190Z,72.607
2024-03-12T11:35:12.421Z,73.017
2024-03-12T11:36:11.772Z,73.845
2024-03-12T11:37:12.338Z,73.217
2024-03-12T11:38:17.513Z,73.740
2024-03-12T11:39:11.952Z,72.941
2024-03-12T11:40:12.685Z,73.931
2024-03-12T11:41:12.377Z,72.664
2024-03-12T11:43:09.501Z,73.913
2024-03-12T11:44:11.672Z,74.476
2024-03-12T11:45:09.807Z,74.688
2024-03-12T11:46:09.588Z,74.917
2024-03-12T11:47:09.681Z,74.848
2024-03-12T11:48:09.243Z,74.236
2024-03-12T11:49:10.127Z,74.583
2024-03-12T11:50:10.949Z,74.262
2024-03-12T11:51:09.290Z,73.644
2024-03-12T11:52:10.145Z,73.986
2024-03-12T11:53:09.551Z,74.495
2024-03-12T11:54:08.870Z,74.072
2024-03-12T11:55:09.749Z,73.784
2024-03-12T11:56:15.330Z,73.881
2024-03-12T11:58:09.411Z,73.746
2024-03-12T11:59:22.932Z,74.293
2024-03-12T12:01:10.028Z,75.180
2024-03-12T12:02:12.498Z,75.220
2024-03-12T12:03:08.833Z,75.371
2024-03-12T12:04:09.594Z,75.325
2024-03-12T12:05:09.730Z,75.588
2024-03-12T12:06:09.009Z,75.441
2024-03-12T12:07:09.658Z,75.493
2024-03-12T12:08:09.472Z,75.298
2024-03-12T12:09:10.788Z,75.237
2024-03-12T12:10:09.519Z,75.470
2024-03-12T12:11:09.385Z,75.878
2024-03-12T12:14:14.282Z,75.464
2024-03-12T12:15:09.566Z,74.755
2024-03-12T12:17:09.660Z,74.270
2024-03-12T12:18:09.318Z,73.740
2024-03-12T12:19:14.032Z,74.333
2024-03-12T12:21:08.886Z,74.142
2024-03-12T12:22:09.524Z,74.169
2024-03-12T12:23:09.186Z,74.318
2024-03-12T12:24:10.860Z,73.997
2024-03-12T12:25:09.595Z,73.578
2024-03-12T12:26:09.256Z,74.409
2024-03-12T12:27:09.692Z,74.077
2024-03-12T12:28:09.234Z,74.123
2024-03-12T12:29:09.204Z,74.186
2024-03-12T12:30:12.492Z,73.980
2024-03-12T12:31:08.947Z,73.994
2024-03-12T12:32:09.413Z,73.347
2024-03-12T12:33:09.015Z,73.297
2024-03-12T12:34:10.841Z,73.061
2024-03-12T12:36:09.272Z,71.770
2024-03-12T12:37:10.115Z,72.384
2024-03-12T12:38:09.733Z,73.067
2024-03-12T12:39:09.188Z,73.301
2024-03-12T12:40:09.692Z,73.255
2024-03-12T12:41:10.592Z,73.332
2024-03-12T12:42:09.305Z,73.511
2024-03-12T12:43:09.960Z,73.805
2024-03-12T12:44:09.635Z,73.877
2024-03-12T12:45:09.489Z,73.463
2024-03-12T12:46:09.002Z,74.827
2024-03-12T12:47:09.537Z,74.440
2024-03-12T12:48:09.205Z,74.491
2024-03-12T12:49:10.095Z,74.974
2024-03-12T12:51:09.319Z,75.428
2024-03-12T12:52:10.977Z,75.434
2024-03-12T12:53:10.218Z,75.085
2024-03-12T12:55:09.066Z,75.252
2024-03-12T12:56:09.602Z,75.094
2024-03-12T12:57:09.250Z,74.613
2024-03-12T12:58:10.763Z,74.526
2024-03-12T12:59:09.407Z,74.453
2024-03-12T13:00:09.777Z,74.802
2024-03-12T13:01:09.775Z,74.554
2024-03-12T13:02:10.513Z,74.512
2024-03-12T13:03:09.214Z,74.274
2024-03-12T13:04:09.962Z,74.180
2024-03-12T13:05:09.911Z,75.106
2024-03-12T13:07:09.316Z,75.048
2024-03-12T13:08:09.016Z,75.266
2024-03-12T13:09:09.361Z,75.277
2024-03-12T13:10:10.116Z,74.837
2024-03-12T13:11:10.500Z,74.642
2024-03-12T13:12:10.513Z,74.510
2024-03-12T13:13:09.159Z,74.915
2024-03-12T13:14:09.639Z,74.842
2024-03-12T13:15:09.047Z,75.094
2024-03-12T13:16:09.761Z,75.205
2024-03-12T13:17:10.602Z,75.310
2024-03-12T13:18:09.215Z,75.619
2024-03-12T13:19:09.805Z,75.922
2024-03-12T13:20:09.329Z,77.259
2024-03-12T13:21:09.879Z,78.995
2024-03-12T13:22:22.939Z,79.668
2024-03-12T13:24:09.351Z,83.202
2024-03-12T13:25:09.986Z,84.381
2024-03-12T13:26:09.551Z,83.874
2024-03-12T13:27:08.879Z,85.281
2024-03-12T13:28:09.711Z,85.674
2024-03-12T13:29:09.345Z,84.637
2024-03-12T13:30:12.696Z,85.865
2024-03-12T13:31:09.053Z,84.967
2024-03-12T13:32:09.827Z,84.911
2024-03-12T13:35:09.929Z,85.217
2024-03-12T13:36:09.321Z,84.240
2024-03-12T13:37:10.015Z,85.258
2024-03-12T13:38:09.503Z,83.942
2024-03-12T13:39:08.897Z,85.087
2024-03-12T13:40:09.765Z,82.310
2024-03-12T13:42:09.186Z,82.540
2024-03-12T13:43:09.681Z,83.511
2024-03-12T13:44:09.660Z,81.909
2024-03-12T13:45:09.161Z,81.785
2024-03-12T13:46:09.811Z,81.749
2024-03-12T13:47:09.795Z,82.203
2024-03-12T13:48:09.608Z,80.763
2024-03-12T13:51:09.169Z,80.360
2024-03-12T13:52:10.428Z,81.167
2024-03-12T13:53:09.102Z,80.337
2024-03-12T13:54:09.636Z,80.629
2024-03-12T13:55:09.685Z,80.007
2024-03-12T13:56:09.173Z,79.504
2024-03-12T13:57:09.588Z,77.490
2024-03-12T13:58:09.121Z,77.633
2024-03-12T13:59:09.162Z,78.081